sensor_id;sensor_type;location;lat;lon;timestamp;P1;durP1;ratioP1;P2;durP2;ratioP2
19735;SDS011;32064;49.310;8.646;2024-03-17T00:01:36;2.10;;;1.90;;
19735;SDS011;32064;49.310;8.646;2024-03-17T00:04:02;2.60;;;2.07;;
19735;SDS011;32064;49.310;8.646;2024-03-17T00:06:28;1.50;;;1.40;;
19735;SDS011;32064;49.310;8.646;2024-03-17T00:08:53;1.50;;;1.40;;
19735;SDS011;32064;49.310;8.646;2024-03-17T00:11:20;2.03;;;1.63;;
19735;SDS011;32064;49.310;8.646;2024-03-17T00:13:45;5.53;;;1.87;;
19735;SDS011;32064;49.310;8.646;2024-03-17T00:16:10;1.87;;;1.67;;
19735;SDS011;32064;49.310;8.646;2024-03-17T00:18:38;1.17;;;1.07;;
19735;SDS011;32064;49.310;8.646;2024-03-17T00:21:03;1.73;;;1.30;;
19735;SDS011;32064;49.310;8.646;2024-03-17T00:23:29;1.10;;;1.00;;
19735;SDS011;32064;49.310;8.646;2024-03-17T00:25:54;1.30;;;1.20;;
19735;SDS011;32064;49.310;8.646;2024-03-17T00:28:20;1.37;;;1.27;;
19735;SDS011;32064;49.310;8.646;2024-03-17T00:30:46;0.80;;;0.80;;
19735;SDS011;32064;49.310;8.646;2024-03-17T00:33:11;1.20;;;1.10;;
19735;SDS011;32064;49.310;8.646;2024-03-17T00:35:36;1.10;;;1.07;;
19735;SDS011;32064;49.310;8.646;2024-03-17T00:38:02;0.97;;;0.97;;
19735;SDS011;32064;49.310;8.646;2024-03-17T00:40:35;1.70;;;1.20;;
19735;SDS011;32064;49.310;8.646;2024-03-17T00:43:00;1.33;;;1.10;;
19735;SDS011;32064;49.310;8.646;2024-03-17T00:45:25;0.93;;;0.93;;
19735;SDS011;32064;49.310;8.646;2024-03-17T00:47:51;1.63;;;1.27;;
19735;SDS011;32064;49.310;8.646;2024-03-17T00:50:16;1.63;;;1.03;;
19735;SDS011;32064;49.310;8.646;2024-03-17T00:52:42;1.03;;;1.03;;
19735;SDS011;32064;49.310;8.646;2024-03-17T00:55:07;0.83;;;0.83;;
19735;SDS011;32064;49.310;8.646;2024-03-17T00:57:35;1.40;;;1.30;;
19735;SDS011;32064;49.310;8.646;2024-03-17T01:00:00;1.43;;;1.30;;
19735;SDS011;32064;49.310;8.646;2024-03-17T01:02:26;1.60;;;1.30;;
19735;SDS011;32064;49.310;8.646;2024-03-17T01:04:51;0.90;;;0.90;;
19735;SDS011;32064;49.310;8.646;2024-03-17T01:07:16;1.30;;;1.20;;
19735;SDS011;32064;49.310;8.646;2024-03-17T01:09:42;2.10;;;1.30;;
19735;SDS011;32064;49.310;8.646;2024-03-17T01:12:07;0.90;;;0.90;;
19735;SDS011;32064;49.310;8.646;2024-03-17T01:14:32;1.77;;;1.17;;
19735;SDS011;32064;49.310;8.646;2024-03-17T01:17:01;1.43;;;1.33;;
19735;SDS011;32064;49.310;8.646;2024-03-17T01:19:29;1.37;;;1.20;;
19735;SDS011;32064;49.310;8.646;2024-03-17T01:21:55;2.17;;;1.47;;
19735;SDS011;32064;49.310;8.646;2024-03-17T01:24:21;2.07;;;1.20;;
19735;SDS011;32064;49.310;8.646;2024-03-17T01:26:46;1.17;;;1.07;;
19735;SDS011;32064;49.310;8.646;2024-03-17T01:29:11;2.27;;;1.00;;
19735;SDS011;32064;49.310;8.646;2024-03-17T01:31:37;1.90;;;1.40;;
19735;SDS011;32064;49.310;8.646;2024-03-17T01:34:02;1.70;;;1.40;;
19735;SDS011;32064;49.310;8.646;2024-03-17T01:36:28;1.57;;;1.40;;
19735;SDS011;32064;49.310;8.646;2024-03-17T01:38:54;1.07;;;1.03;;
19735;SDS011;32064;49.310;8.646;2024-03-17T01:41:19;1.03;;;1.00;;
19735;SDS011;32064;49.310;8.646;2024-03-17T01:43:44;1.30;;;1.20;;
19735;SDS011;32064;49.310;8.646;2024-03-17T01:46:11;1.70;;;1.57;;
19735;SDS011;32064;49.310;8.646;2024-03-17T01:48:38;1.27;;;1.17;;
19735;SDS011;32064;49.310;8.646;2024-03-17T01:51:05;1.27;;;1.17;;
19735;SDS011;32064;49.310;8.646;2024-03-17T01:53:31;1.40;;;1.30;;
19735;SDS011;32064;49.310;8.646;2024-03-17T01:55:57;1.33;;;1.17;;
19735;SDS011;32064;49.310;8.646;2024-03-17T01:58:27;2.00;;;1.67;;
19735;SDS011;32064;49.310;8.646;2024-03-17T02:00:55;1.53;;;1.43;;
19735;SDS011;32064;49.310;8.646;2024-03-17T02:03:21;1.33;;;1.20;;
19735;SDS011;32064;49.310;8.646;2024-03-17T02:05:46;2.73;;;1.80;;
19735;SDS011;32064;49.310;8.646;2024-03-17T02:08:13;1.40;;;1.30;;
19735;SDS011;32064;49.310;8.646;2024-03-17T02:10:38;1.47;;;1.33;;
19735;SDS011;32064;49.310;8.646;2024-03-17T02:13:04;1.47;;;1.37;;
19735;SDS011;32064;49.310;8.646;2024-03-17T02:15:30;1.70;;;1.37;;
19735;SDS011;32064;49.310;8.646;2024-03-17T02:17:56;1.57;;;1.47;;
19735;SDS011;32064;49.310;8.646;2024-03-17T02:20:22;2.30;;;1.53;;
19735;SDS011;32064;49.310;8.646;2024-03-17T02:23:07;1.77;;;1.50;;
19735;SDS011;32064;49.310;8.646;2024-03-17T02:25:33;2.50;;;1.60;;
19735;SDS011;32064;49.310;8.646;2024-03-17T02:27:58;2.50;;;1.57;;
19735;SDS011;32064;49.310;8.646;2024-03-17T02:30:23;3.90;;;1.53;;
19735;SDS011;32064;49.310;8.646;2024-03-17T02:32:52;2.30;;;1.67;;
19735;SDS011;32064;49.310;8.646;2024-03-17T02:35:18;1.23;;;1.13;;
19735;SDS011;32064;49.310;8.646;2024-03-17T02:37:44;5.70;;;1.80;;
19735;SDS011;32064;49.310;8.646;2024-03-17T02:40:09;1.00;;;1.00;;
19735;SDS011;32064;49.310;8.646;2024-03-17T02:42:35;1.53;;;1.40;;
19735;SDS011;32064;49.310;8.646;2024-03-17T02:45:03;5.70;;;1.47;;
19735;SDS011;32064;49.310;8.646;2024-03-17T02:47:29;3.20;;;1.20;;
19735;SDS011;32064;49.310;8.646;2024-03-17T02:49:55;1.97;;;1.40;;
19735;SDS011;32064;49.310;8.646;2024-03-17T02:52:20;0.90;;;0.90;;
19735;SDS011;32064;49.310;8.646;2024-03-17T02:54:46;1.47;;;1.07;;
19735;SDS011;32064;49.310;8.646;2024-03-17T02:57:11;1.00;;;0.93;;
19735;SDS011;32064;49.310;8.646;2024-03-17T02:59:37;1.00;;;1.00;;
19735;SDS011;32064;49.310;8.646;2024-03-17T03:02:02;1.50;;;1.07;;
19735;SDS011;32064;49.310;8.646;2024-03-17T03:04:28;3.43;;;1.23;;
19735;SDS011;32064;49.310;8.646;2024-03-17T03:06:53;0.90;;;0.90;;
19735;SDS011;32064;49.310;8.646;2024-03-17T03:09:18;0.80;;;0.70;;
19735;SDS011;32064;49.310;8.646;2024-03-17T03:11:56;2.40;;;1.07;;
19735;SDS011;32064;49.310;8.646;2024-03-17T03:14:21;1.30;;;1.20;;
19735;SDS011;32064;49.310;8.646;2024-03-17T03:16:46;1.33;;;1.10;;
19735;SDS011;32064;49.310;8.646;2024-03-17T03:19:12;1.80;;;1.27;;
19735;SDS011;32064;49.310;8.646;2024-03-17T03:21:37;1.37;;;1.03;;
19735;SDS011;32064;49.310;8.646;2024-03-17T03:24:02;1.07;;;1.00;;
19735;SDS011;32064;49.310;8.646;2024-03-17T03:26:28;1.20;;;1.10;;
19735;SDS011;32064;49.310;8.646;2024-03-17T03:28:53;0.73;;;0.73;;
19735;SDS011;32064;49.310;8.646;2024-03-17T03:31:20;1.37;;;1.00;;
19735;SDS011;32064;49.310;8.646;2024-03-17T03:33:46;2.60;;;1.30;;
19735;SDS011;32064;49.310;8.646;2024-03-17T03:36:13;3.40;;;1.00;;
19735;SDS011;32064;49.310;8.646;2024-03-17T03:38:39;1.20;;;1.10;;
19735;SDS011;32064;49.310;8.646;2024-03-17T03:41:06;8.70;;;0.80;;
19735;SDS011;32064;49.310;8.646;2024-03-17T03:43:35;0.83;;;0.83;;
19735;SDS011;32064;49.310;8.646;2024-03-17T03:46:01;1.23;;;1.13;;
19735;SDS011;32064;49.310;8.646;2024-03-17T03:48:27;1.20;;;1.10;;
19735;SDS011;32064;49.310;8.646;2024-03-17T03:50:52;1.13;;;1.03;;
19735;SDS011;32064;49.310;8.646;2024-03-17T03:53:19;1.67;;;1.10;;
19735;SDS011;32064;49.310;8.646;2024-03-17T03:55:45;1.03;;;1.03;;
19735;SDS011;32064;49.310;8.646;2024-03-17T03:58:10;1.00;;;1.00;;
19735;SDS011;32064;49.310;8.646;2024-03-17T04:00:37;1.63;;;0.80;;
19735;SDS011;32064;49.310;8.646;2024-03-17T04:03:04;0.97;;;0.97;;
19735;SDS011;32064;49.310;8.646;2024-03-17T04:05:30;0.97;;;0.73;;
19735;SDS011;32064;49.310;8.646;2024-03-17T04:07:56;1.30;;;1.03;;
19735;SDS011;32064;49.310;8.646;2024-03-17T04:10:21;1.37;;;1.23;;
19735;SDS011;32064;49.310;8.646;2024-03-17T04:12:47;1.13;;;0.97;;
19735;SDS011;32064;49.310;8.646;2024-03-17T04:15:13;1.30;;;0.67;;
19735;SDS011;32064;49.310;8.646;2024-03-17T04:17:39;1.37;;;1.10;;
19735;SDS011;32064;49.310;8.646;2024-03-17T04:20:05;0.70;;;0.70;;
19735;SDS011;32064;49.310;8.646;2024-03-17T04:22:33;1.17;;;1.07;;
19735;SDS011;32064;49.310;8.646;2024-03-17T04:24:59;1.13;;;1.03;;
19735;SDS011;32064;49.310;8.646;2024-03-17T04:27:25;4.53;;;1.00;;
19735;SDS011;32064;49.310;8.646;2024-03-17T04:29:53;0.87;;;0.87;;
19735;SDS011;32064;49.310;8.646;2024-03-17T04:32:20;0.97;;;0.83;;
19735;SDS011;32064;49.310;8.646;2024-03-17T04:34:45;3.07;;;1.03;;
19735;SDS011;32064;49.310;8.646;2024-03-17T04:37:12;2.40;;;1.07;;
19735;SDS011;32064;49.310;8.646;2024-03-17T04:39:41;0.67;;;0.67;;
19735;SDS011;32064;49.310;8.646;2024-03-17T04:42:08;1.40;;;1.00;;
19735;SDS011;32064;49.310;8.646;2024-03-17T04:44:41;1.07;;;0.80;;
19735;SDS011;32064;49.310;8.646;2024-03-17T04:47:07;0.90;;;0.90;;
19735;SDS011;32064;49.310;8.646;2024-03-17T04:49:40;1.37;;;1.03;;
19735;SDS011;32064;49.310;8.646;2024-03-17T04:52:06;2.37;;;1.23;;
19735;SDS011;32064;49.310;8.646;2024-03-17T04:54:35;3.03;;;0.90;;
19735;SDS011;32064;49.310;8.646;2024-03-17T04:57:00;0.80;;;0.80;;
19735;SDS011;32064;49.310;8.646;2024-03-17T04:59:26;0.80;;;0.80;;
19735;SDS011;32064;49.310;8.646;2024-03-17T05:01:52;1.67;;;1.57;;
19735;SDS011;32064;49.310;8.646;2024-03-17T05:04:18;1.27;;;1.17;;
19735;SDS011;32064;49.310;8.646;2024-03-17T05:06:43;0.70;;;0.70;;
19735;SDS011;32064;49.310;8.646;2024-03-17T05:09:15;0.87;;;0.87;;
19735;SDS011;32064;49.310;8.646;2024-03-17T05:11:41;0.97;;;0.97;;
19735;SDS011;32064;49.310;8.646;2024-03-17T05:14:07;1.73;;;1.00;;
19735;SDS011;32064;49.310;8.646;2024-03-17T05:16:32;0.80;;;0.80;;
19735;SDS011;32064;49.310;8.646;2024-03-17T05:18:58;1.23;;;1.03;;
19735;SDS011;32064;49.310;8.646;2024-03-17T05:21:23;1.30;;;1.20;;
19735;SDS011;32064;49.310;8.646;2024-03-17T05:23:49;1.33;;;1.07;;
19735;SDS011;32064;49.310;8.646;2024-03-17T05:26:14;1.00;;;1.00;;
19735;SDS011;32064;49.310;8.646;2024-03-17T05:28:40;1.47;;;1.37;;
19735;SDS011;32064;49.310;8.646;2024-03-17T05:31:05;0.80;;;0.80;;
19735;SDS011;32064;49.310;8.646;2024-03-17T05:33:31;2.00;;;0.90;;
19735;SDS011;32064;49.310;8.646;2024-03-17T05:35:57;0.97;;;0.70;;
19735;SDS011;32064;49.310;8.646;2024-03-17T05:38:28;1.03;;;0.93;;
19735;SDS011;32064;49.310;8.646;2024-03-17T05:41:05;0.80;;;0.80;;
19735;SDS011;32064;49.310;8.646;2024-03-17T05:43:32;1.43;;;1.30;;
19735;SDS011;32064;49.310;8.646;2024-03-17T05:45:58;1.20;;;1.13;;
19735;SDS011;32064;49.310;8.646;2024-03-17T05:48:26;2.17;;;1.00;;
19735;SDS011;32064;49.310;8.646;2024-03-17T05:50:52;1.70;;;0.97;;
19735;SDS011;32064;49.310;8.646;2024-03-17T05:53:18;1.13;;;1.03;;
19735;SDS011;32064;49.310;8.646;2024-03-17T05:55:46;1.03;;;1.03;;
19735;SDS011;32064;49.310;8.646;2024-03-17T05:58:12;1.07;;;0.97;;
19735;SDS011;32064;49.310;8.646;2024-03-17T06:00:38;1.20;;;1.03;;
19735;SDS011;32064;49.310;8.646;2024-03-17T06:03:05;1.00;;;1.00;;
19735;SDS011;32064;49.310;8.646;2024-03-17T06:05:32;1.30;;;1.20;;
19735;SDS011;32064;49.310;8.646;2024-03-17T06:08:01;2.10;;;1.37;;
19735;SDS011;32064;49.310;8.646;2024-03-17T06:10:29;0.83;;;0.83;;
19735;SDS011;32064;49.310;8.646;2024-03-17T06:12:55;0.80;;;0.80;;
19735;SDS011;32064;49.310;8.646;2024-03-17T06:15:22;0.90;;;0.90;;
19735;SDS011;32064;49.310;8.646;2024-03-17T06:17:48;1.00;;;1.00;;
19735;SDS011;32064;49.310;8.646;2024-03-17T06:20:15;1.07;;;0.97;;
19735;SDS011;32064;49.310;8.646;2024-03-17T06:22:41;0.90;;;0.80;;
19735;SDS011;32064;49.310;8.646;2024-03-17T06:25:06;1.67;;;1.10;;
19735;SDS011;32064;49.310;8.646;2024-03-17T06:27:32;1.17;;;1.07;;
19735;SDS011;32064;49.310;8.646;2024-03-17T06:30:00;1.03;;;0.97;;
19735;SDS011;32064;49.310;8.646;2024-03-17T06:32:29;0.77;;;0.77;;
19735;SDS011;32064;49.310;8.646;2024-03-17T06:34:56;1.37;;;1.00;;
19735;SDS011;32064;49.310;8.646;2024-03-17T06:37:22;1.10;;;1.00;;
19735;SDS011;32064;49.310;8.646;2024-03-17T06:39:48;0.77;;;0.77;;
19735;SDS011;32064;49.310;8.646;2024-03-17T06:42:13;1.60;;;1.10;;
19735;SDS011;32064;49.310;8.646;2024-03-17T06:44:39;0.90;;;0.90;;
19735;SDS011;32064;49.310;8.646;2024-03-17T06:47:05;1.63;;;1.10;;
19735;SDS011;32064;49.310;8.646;2024-03-17T06:49:30;1.57;;;1.10;;
19735;SDS011;32064;49.310;8.646;2024-03-17T06:51:56;1.23;;;1.13;;
19735;SDS011;32064;49.310;8.646;2024-03-17T06:54:21;1.00;;;0.97;;
19735;SDS011;32064;49.310;8.646;2024-03-17T06:56:47;1.07;;;0.90;;
19735;SDS011;32064;49.310;8.646;2024-03-17T06:59:12;1.03;;;0.93;;
19735;SDS011;32064;49.310;8.646;2024-03-17T07:01:38;1.33;;;1.23;;
19735;SDS011;32064;49.310;8.646;2024-03-17T07:04:03;1.03;;;0.93;;
19735;SDS011;32064;49.310;8.646;2024-03-17T07:06:28;6.13;;;1.10;;
19735;SDS011;32064;49.310;8.646;2024-03-17T07:08:54;1.97;;;1.20;;
19735;SDS011;32064;49.310;8.646;2024-03-17T07:11:20;1.23;;;1.13;;
19735;SDS011;32064;49.310;8.646;2024-03-17T07:13:48;1.73;;;1.23;;
19735;SDS011;32064;49.310;8.646;2024-03-17T07:16:16;1.52;;;1.25;;
19735;SDS011;32064;49.310;8.646;2024-03-17T07:18:43;2.70;;;1.25;;
19735;SDS011;32064;49.310;8.646;2024-03-17T07:21:09;0.90;;;0.90;;
19735;SDS011;32064;49.310;8.646;2024-03-17T07:23:35;2.28;;;1.35;;
19735;SDS011;32064;49.310;8.646;2024-03-17T07:26:02;1.17;;;1.08;;
19735;SDS011;32064;49.310;8.646;2024-03-17T07:28:29;1.08;;;1.08;;
19735;SDS011;32064;49.310;8.646;2024-03-17T07:30:56;1.10;;;1.10;;
19735;SDS011;32064;49.310;8.646;2024-03-17T07:33:23;2.50;;;1.40;;
19735;SDS011;32064;49.310;8.646;2024-03-17T07:35:53;1.20;;;1.10;;
19735;SDS011;32064;49.310;8.646;2024-03-17T07:38:21;5.20;;;1.75;;
19735;SDS011;32064;49.310;8.646;2024-03-17T07:41:00;1.65;;;1.55;;
19735;SDS011;32064;49.310;8.646;2024-03-17T07:43:27;1.30;;;1.20;;
19735;SDS011;32064;49.310;8.646;2024-03-17T07:46:00;1.95;;;1.65;;
19735;SDS011;32064;49.310;8.646;2024-03-17T07:48:30;3.25;;;1.88;;
19735;SDS011;32064;49.310;8.646;2024-03-17T07:51:03;1.70;;;1.60;;
19735;SDS011;32064;49.310;8.646;2024-03-17T07:53:37;2.22;;;1.73;;
19735;SDS011;32064;49.310;8.646;2024-03-17T07:56:07;2.33;;;1.50;;
19735;SDS011;32064;49.310;8.646;2024-03-17T07:58:36;2.05;;;1.85;;
19735;SDS011;32064;49.310;8.646;2024-03-17T08:01:04;2.33;;;1.92;;
19735;SDS011;32064;49.310;8.646;2024-03-17T08:03:35;1.92;;;1.38;;
19735;SDS011;32064;49.310;8.646;2024-03-17T08:06:02;2.03;;;1.45;;
19735;SDS011;32064;49.310;8.646;2024-03-17T08:08:28;1.70;;;1.60;;
19735;SDS011;32064;49.310;8.646;2024-03-17T08:10:54;1.98;;;1.85;;
19735;SDS011;32064;49.310;8.646;2024-03-17T08:13:20;2.97;;;1.88;;
19735;SDS011;32064;49.310;8.646;2024-03-17T08:15:54;4.45;;;1.80;;
19735;SDS011;32064;49.310;8.646;2024-03-17T08:18:23;1.98;;;1.73;;
19735;SDS011;32064;49.310;8.646;2024-03-17T08:20:50;2.13;;;1.90;;
19735;SDS011;32064;49.310;8.646;2024-03-17T08:23:15;1.90;;;1.75;;
19735;SDS011;32064;49.310;8.646;2024-03-17T08:25:41;2.90;;;1.65;;
19735;SDS011;32064;49.310;8.646;2024-03-17T08:28:06;2.42;;;1.88;;
19735;SDS011;32064;49.310;8.646;2024-03-17T08:30:32;1.90;;;1.50;;
19735;SDS011;32064;49.310;8.646;2024-03-17T08:32:58;1.95;;;1.85;;
19735;SDS011;32064;49.310;8.646;2024-03-17T08:35:24;2.88;;;1.80;;
19735;SDS011;32064;49.310;8.646;2024-03-17T08:37:50;2.75;;;1.60;;
19735;SDS011;32064;49.310;8.646;2024-03-17T08:40:21;2.33;;;1.75;;
19735;SDS011;32064;49.310;8.646;2024-03-17T08:42:48;2.63;;;2.40;;
19735;SDS011;32064;49.310;8.646;2024-03-17T08:45:13;1.65;;;1.55;;
19735;SDS011;32064;49.310;8.646;2024-03-17T08:47:39;7.70;;;1.92;;
19735;SDS011;32064;49.310;8.646;2024-03-17T08:50:04;1.73;;;1.63;;
19735;SDS011;32064;49.310;8.646;2024-03-17T08:52:33;1.35;;;1.25;;
19735;SDS011;32064;49.310;8.646;2024-03-17T08:54:58;3.50;;;1.52;;
19735;SDS011;32064;49.310;8.646;2024-03-17T08:57:24;2.78;;;1.83;;
19735;SDS011;32064;49.310;8.646;2024-03-17T08:59:50;1.73;;;1.52;;
19735;SDS011;32064;49.310;8.646;2024-03-17T09:02:18;4.10;;;1.90;;
19735;SDS011;32064;49.310;8.646;2024-03-17T09:04:45;1.88;;;1.77;;
19735;SDS011;32064;49.310;8.646;2024-03-17T09:07:10;1.88;;;1.60;;
19735;SDS011;32064;49.310;8.646;2024-03-17T09:09:35;2.85;;;1.85;;
19735;SDS011;32064;49.310;8.646;2024-03-17T09:12:01;1.95;;;1.42;;
19735;SDS011;32064;49.310;8.646;2024-03-17T09:14:29;2.67;;;2.33;;
19735;SDS011;32064;49.310;8.646;2024-03-17T09:16:54;2.10;;;1.90;;
19735;SDS011;32064;49.310;8.646;2024-03-17T09:19:20;2.53;;;2.30;;
19735;SDS011;32064;49.310;8.646;2024-03-17T09:21:45;2.67;;;2.33;;
19735;SDS011;32064;49.310;8.646;2024-03-17T09:24:11;1.92;;;1.52;;
19735;SDS011;32064;49.310;8.646;2024-03-17T09:26:36;2.10;;;1.90;;
19735;SDS011;32064;49.310;8.646;2024-03-17T09:29:04;2.28;;;2.08;;
19735;SDS011;32064;49.310;8.646;2024-03-17T09:31:30;2.22;;;1.88;;
19735;SDS011;32064;49.310;8.646;2024-03-17T09:33:58;1.90;;;1.80;;
19735;SDS011;32064;49.310;8.646;2024-03-17T09:36:24;1.52;;;1.42;;
19735;SDS011;32064;49.310;8.646;2024-03-17T09:38:49;1.90;;;1.80;;
19735;SDS011;32064;49.310;8.646;2024-03-17T09:41:19;1.55;;;1.45;;
19735;SDS011;32064;49.310;8.646;2024-03-17T09:43:47;1.98;;;1.80;;
19735;SDS011;32064;49.310;8.646;2024-03-17T09:46:13;2.75;;;2.25;;
19735;SDS011;32064;49.310;8.646;2024-03-17T09:48:44;2.33;;;2.08;;
19735;SDS011;32064;49.310;8.646;2024-03-17T09:51:16;1.58;;;1.45;;
19735;SDS011;32064;49.310;8.646;2024-03-17T09:53:43;1.88;;;1.75;;
19735;SDS011;32064;49.310;8.646;2024-03-17T09:56:10;1.40;;;1.30;;
19735;SDS011;32064;49.310;8.646;2024-03-17T09:58:37;1.88;;;1.77;;
19735;SDS011;32064;49.310;8.646;2024-03-17T10:01:03;1.73;;;1.63;;
19735;SDS011;32064;49.310;8.646;2024-03-17T10:06:17;2.33;;;2.13;;
19735;SDS011;32064;49.310;8.646;2024-03-17T10:08:50;3.75;;;2.15;;
19735;SDS011;32064;49.310;8.646;2024-03-17T10:11:18;1.98;;;1.70;;
19735;SDS011;32064;49.310;8.646;2024-03-17T10:13:45;2.08;;;1.90;;
19735;SDS011;32064;49.310;8.646;2024-03-17T10:16:19;1.80;;;1.70;;
19735;SDS011;32064;49.310;8.646;2024-03-17T10:18:48;1.90;;;1.63;;
19735;SDS011;32064;49.310;8.646;2024-03-17T10:21:34;3.53;;;1.95;;
19735;SDS011;32064;49.310;8.646;2024-03-17T10:24:06;2.35;;;1.98;;
19735;SDS011;32064;49.310;8.646;2024-03-17T10:26:43;1.67;;;1.58;;
19735;SDS011;32064;49.310;8.646;2024-03-17T10:31:50;1.77;;;1.67;;
19735;SDS011;32064;49.310;8.646;2024-03-17T10:34:20;4.55;;;2.00;;
19735;SDS011;32064;49.310;8.646;2024-03-17T10:36:49;1.85;;;1.75;;
19735;SDS011;32064;49.310;8.646;2024-03-17T10:39:31;3.65;;;2.08;;
19735;SDS011;32064;49.310;8.646;2024-03-17T10:41:58;4.03;;;2.25;;
19735;SDS011;32064;49.310;8.646;2024-03-17T10:44:27;1.63;;;1.52;;
19735;SDS011;32064;49.310;8.646;2024-03-17T10:46:57;1.70;;;1.60;;
19735;SDS011;32064;49.310;8.646;2024-03-17T10:49:28;1.48;;;1.38;;
19735;SDS011;32064;49.310;8.646;2024-03-17T10:52:01;18.48;;;2.15;;
19735;SDS011;32064;49.310;8.646;2024-03-17T10:54:31;1.50;;;1.40;;
19735;SDS011;32064;49.310;8.646;2024-03-17T10:57:08;2.42;;;2.22;;
19735;SDS011;32064;49.310;8.646;2024-03-17T10:59:40;11.38;;;2.17;;
19735;SDS011;32064;49.310;8.646;2024-03-17T11:04:49;2.40;;;2.13;;
19735;SDS011;32064;49.310;8.646;2024-03-17T11:07:17;2.00;;;1.88;;
19735;SDS011;32064;49.310;8.646;2024-03-17T11:09:44;3.47;;;2.28;;
19735;SDS011;32064;49.310;8.646;2024-03-17T11:20:37;3.85;;;1.88;;
19735;SDS011;32064;49.310;8.646;2024-03-17T11:23:04;2.00;;;1.70;;
19735;SDS011;32064;49.310;8.646;2024-03-17T11:27:59;1.40;;;1.30;;
19735;SDS011;32064;49.310;8.646;2024-03-17T11:39:01;2.35;;;1.90;;
19735;SDS011;32064;49.310;8.646;2024-03-17T11:41:30;1.40;;;1.30;;
19735;SDS011;32064;49.310;8.646;2024-03-17T11:47:01;1.92;;;1.73;;
19735;SDS011;32064;49.310;8.646;2024-03-17T11:52:00;2.22;;;1.92;;
19735;SDS011;32064;49.310;8.646;2024-03-17T11:54:32;2.47;;;1.67;;
19735;SDS011;32064;49.310;8.646;2024-03-17T11:57:08;1.75;;;1.50;;
19735;SDS011;32064;49.310;8.646;2024-03-17T11:59:35;1.40;;;1.30;;
19735;SDS011;32064;49.310;8.646;2024-03-17T12:02:09;2.53;;;1.85;;
19735;SDS011;32064;49.310;8.646;2024-03-17T12:04:41;1.90;;;1.80;;
19735;SDS011;32064;49.310;8.646;2024-03-17T12:07:12;1.88;;;1.77;;
19735;SDS011;32064;49.310;8.646;2024-03-17T12:09:40;2.88;;;1.95;;
19735;SDS011;32064;49.310;8.646;2024-03-17T12:12:11;1.90;;;1.60;;
19735;SDS011;32064;49.310;8.646;2024-03-17T12:14:41;1.80;;;1.70;;
19735;SDS011;32064;49.310;8.646;2024-03-17T12:17:07;2.38;;;1.65;;
19735;SDS011;32064;49.310;8.646;2024-03-17T12:19:34;2.15;;;1.75;;
19735;SDS011;32064;49.310;8.646;2024-03-17T12:22:00;1.90;;;1.63;;
19735;SDS011;32064;49.310;8.646;2024-03-17T12:24:28;1.83;;;1.52;;
19735;SDS011;32064;49.310;8.646;2024-03-17T12:26:58;2.10;;;1.73;;
19735;SDS011;32064;49.310;8.646;2024-03-17T12:32:04;1.73;;;1.63;;
19735;SDS011;32064;49.310;8.646;2024-03-17T12:34:31;3.42;;;1.52;;
19735;SDS011;32064;49.310;8.646;2024-03-17T12:36:59;1.52;;;1.42;;
19735;SDS011;32064;49.310;8.646;2024-03-17T12:39:26;2.25;;;1.65;;
19735;SDS011;32064;49.310;8.646;2024-03-17T12:44:38;2.35;;;1.75;;
19735;SDS011;32064;49.310;8.646;2024-03-17T12:47:07;1.70;;;1.60;;
19735;SDS011;32064;49.310;8.646;2024-03-17T12:49:43;2.00;;;1.40;;
19735;SDS011;32064;49.310;8.646;2024-03-17T12:52:22;2.33;;;1.80;;
19735;SDS011;32064;49.310;8.646;2024-03-17T12:55:02;2.58;;;1.88;;
19735;SDS011;32064;49.310;8.646;2024-03-17T12:57:51;1.75;;;1.50;;
19735;SDS011;32064;49.310;8.646;2024-03-17T13:00:36;2.53;;;1.92;;
19735;SDS011;32064;49.310;8.646;2024-03-17T13:03:05;4.30;;;1.73;;
19735;SDS011;32064;49.310;8.646;2024-03-17T13:05:33;2.08;;;1.88;;
19735;SDS011;32064;49.310;8.646;2024-03-17T13:07:59;5.60;;;1.83;;
19735;SDS011;32064;49.310;8.646;2024-03-17T13:10:25;2.00;;;1.63;;
19735;SDS011;32064;49.310;8.646;2024-03-17T13:13:04;2.10;;;1.58;;
19735;SDS011;32064;49.310;8.646;2024-03-17T13:15:31;1.77;;;1.67;;
19735;SDS011;32064;49.310;8.646;2024-03-17T13:17:57;1.33;;;1.23;;
19735;SDS011;32064;49.310;8.646;2024-03-17T13:20:23;1.73;;;1.55;;
19735;SDS011;32064;49.310;8.646;2024-03-17T13:22:49;2.05;;;1.45;;
19735;SDS011;32064;49.310;8.646;2024-03-17T13:25:15;1.30;;;1.20;;
19735;SDS011;32064;49.310;8.646;2024-03-17T13:27:45;5.15;;;1.98;;
19735;SDS011;32064;49.310;8.646;2024-03-17T13:30:12;1.27;;;1.10;;
19735;SDS011;32064;49.310;8.646;2024-03-17T13:32:38;4.60;;;1.50;;
19735;SDS011;32064;49.310;8.646;2024-03-17T13:35:05;1.65;;;1.17;;
19735;SDS011;32064;49.310;8.646;2024-03-17T13:37:33;1.55;;;1.40;;
19735;SDS011;32064;49.310;8.646;2024-03-17T13:39:59;1.17;;;1.08;;
19735;SDS011;32064;49.310;8.646;2024-03-17T13:42:27;1.70;;;1.20;;
19735;SDS011;32064;49.310;8.646;2024-03-17T13:44:53;1.80;;;1.15;;
19735;SDS011;32064;49.310;8.646;2024-03-17T13:47:18;2.05;;;1.25;;
19735;SDS011;32064;49.310;8.646;2024-03-17T13:49:44;2.08;;;1.58;;
19735;SDS011;32064;49.310;8.646;2024-03-17T13:52:09;3.28;;;1.35;;
19735;SDS011;32064;49.310;8.646;2024-03-17T13:54:34;2.20;;;1.83;;
19735;SDS011;32064;49.310;8.646;2024-03-17T13:57:00;2.03;;;1.20;;
19735;SDS011;32064;49.310;8.646;2024-03-17T13:59:27;1.95;;;1.70;;
19735;SDS011;32064;49.310;8.646;2024-03-17T14:01:53;1.55;;;1.40;;
19735;SDS011;32064;49.310;8.646;2024-03-17T14:04:18;1.75;;;1.42;;
19735;SDS011;32064;49.310;8.646;2024-03-17T14:06:44;1.50;;;1.40;;
19735;SDS011;32064;49.310;8.646;2024-03-17T14:09:10;2.45;;;2.05;;
19735;SDS011;32064;49.310;8.646;2024-03-17T14:11:37;1.13;;;1.02;;
19735;SDS011;32064;49.310;8.646;2024-03-17T14:14:03;1.95;;;1.20;;
19735;SDS011;32064;49.310;8.646;2024-03-17T14:16:30;1.05;;;1.05;;
19735;SDS011;32064;49.310;8.646;2024-03-17T14:18:57;2.78;;;1.30;;
19735;SDS011;32064;49.310;8.646;2024-03-17T14:21:23;1.38;;;1.30;;
19735;SDS011;32064;49.310;8.646;2024-03-17T14:23:49;0.98;;;0.98;;
19735;SDS011;32064;49.310;8.646;2024-03-17T14:26:14;3.55;;;1.25;;
19735;SDS011;32064;49.310;8.646;2024-03-17T14:28:40;2.53;;;2.33;;
19735;SDS011;32064;49.310;8.646;2024-03-17T14:31:06;1.67;;;1.58;;
19735;SDS011;32064;49.310;8.646;2024-03-17T14:33:31;1.52;;;1.27;;
19735;SDS011;32064;49.310;8.646;2024-03-17T14:35:57;4.25;;;2.05;;
19735;SDS011;32064;49.310;8.646;2024-03-17T14:38:22;1.73;;;1.48;;
19735;SDS011;32064;49.310;8.646;2024-03-17T14:40:50;1.48;;;1.38;;
19735;SDS011;32064;49.310;8.646;2024-03-17T14:43:16;2.03;;;1.65;;
19735;SDS011;32064;49.310;8.646;2024-03-17T14:45:42;7.72;;;1.60;;
19735;SDS011;32064;49.310;8.646;2024-03-17T14:48:07;1.40;;;0.95;;
19735;SDS011;32064;49.310;8.646;2024-03-17T14:50:34;2.03;;;1.70;;
19735;SDS011;32064;49.310;8.646;2024-03-17T14:53:01;0.80;;;0.80;;
19735;SDS011;32064;49.310;8.646;2024-03-17T14:55:27;1.27;;;1.17;;
19735;SDS011;32064;49.310;8.646;2024-03-17T14:57:53;1.45;;;1.02;;
19735;SDS011;32064;49.310;8.646;2024-03-17T15:00:19;1.13;;;1.08;;
19735;SDS011;32064;49.310;8.646;2024-03-17T15:02:49;2.65;;;1.50;;
19735;SDS011;32064;49.310;8.646;2024-03-17T15:05:16;1.10;;;1.00;;
19735;SDS011;32064;49.310;8.646;2024-03-17T15:07:45;1.73;;;1.60;;
19735;SDS011;32064;49.310;8.646;2024-03-17T15:10:10;16.80;;;1.45;;
19735;SDS011;32064;49.310;8.646;2024-03-17T15:12:49;1.27;;;1.05;;
19735;SDS011;32064;49.310;8.646;2024-03-17T15:15:15;1.35;;;1.02;;
19735;SDS011;32064;49.310;8.646;2024-03-17T15:17:41;1.02;;;1.00;;
19735;SDS011;32064;49.310;8.646;2024-03-17T15:20:09;1.63;;;1.20;;
19735;SDS011;32064;49.310;8.646;2024-03-17T15:22:44;2.65;;;1.40;;
19735;SDS011;32064;49.310;8.646;2024-03-17T15:25:14;2.85;;;1.63;;
19735;SDS011;32064;49.310;8.646;2024-03-17T15:27:40;3.33;;;1.58;;